sensor_id;sensor_type;location;lat;lon;timestamp;pressure;altitude;pressure_sealevel;temperature;humidity
64200;BME280;50516;52.272;5.136;2023-03-11T00:00:26;100688.97;;;2.00;76.65
64200;BME280;50516;52.272;5.136;2023-03-11T00:02:54;100692.78;;;2.18;77.04
64200;BME280;50516;52.272;5.136;2023-03-11T00:05:28;100690.72;;;2.20;75.59
64200;BME280;50516;52.272;5.136;2023-03-11T00:07:54;100684.06;;;2.16;76.07
64200;BME280;50516;52.272;5.136;2023-03-11T00:10:29;100698.41;;;2.23;78.19
64200;BME280;50516;52.272;5.136;2023-03-11T00:12:54;100688.28;;;2.12;77.02
64200;BME280;50516;52.272;5.136;2023-03-11T00:15:20;100701.41;;;2.08;76.74
64200;BME280;50516;52.272;5.136;2023-03-11T00:17:49;100692.75;;;2.25;77.01
64200;BME280;50516;52.272;5.136;2023-03-11T00:20:26;100696.88;;;2.27;77.13
64200;BME280;50516;52.272;5.136;2023-03-11T00:22:52;100704.78;;;2.29;76.69
64200;BME280;50516;52.272;5.136;2023-03-11T00:25:19;100708.00;;;2.19;76.29
64200;BME280;50516;52.272;5.136;2023-03-11T00:27:45;100706.88;;;2.01;75.35
64200;BME280;50516;52.272;5.136;2023-03-11T00:30:12;100708.09;;;2.06;76.33
64200;BME280;50516;52.272;5.136;2023-03-11T00:32:38;100712.22;;;2.15;74.88
64200;BME280;50516;52.272;5.136;2023-03-11T00:35:04;100714.94;;;2.15;74.78
64200;BME280;50516;52.272;5.136;2023-03-11T00:37:30;100720.06;;;2.23;74.31
64200;BME280;50516;52.272;5.136;2023-03-11T00:39:55;100727.66;;;2.08;72.85
64200;BME280;50516;52.272;5.136;2023-03-11T00:42:20;100727.06;;;2.06;71.93
64200;BME280;50516;52.272;5.136;2023-03-11T00:44:46;100728.91;;;2.12;72.68
64200;BME280;50516;52.272;5.136;2023-03-11T00:47:11;100736.31;;;2.23;74.25
64200;BME280;50516;52.272;5.136;2023-03-11T00:49:38;100739.19;;;2.28;73.31
64200;BME280;50516;52.272;5.136;2023-03-11T00:52:04;100749.44;;;2.26;72.36
64200;BME280;50516;52.272;5.136;2023-03-11T00:54:32;100744.13;;;2.38;74.32
64200;BME280;50516;52.272;5.136;2023-03-11T00:56:57;100753.72;;;2.34;72.66
64200;BME280;50516;52.272;5.136;2023-03-11T00:59:23;100745.28;;;2.49;75.84
64200;BME280;50516;52.272;5.136;2023-03-11T01:01:50;100752.97;;;2.52;74.87
64200;BME280;50516;52.272;5.136;2023-03-11T01:04:15;100751.31;;;2.51;75.01
64200;BME280;50516;52.272;5.136;2023-03-11T01:06:41;100752.34;;;2.50;74.58
64200;BME280;50516;52.272;5.136;2023-03-11T01:09:06;100756.31;;;2.54;77.96
64200;BME280;50516;52.272;5.136;2023-03-11T01:11:32;100748.81;;;2.49;76.41
64200;BME280;50516;52.272;5.136;2023-03-11T01:13:57;100756.63;;;2.39;74.68
64200;BME280;50516;52.272;5.136;2023-03-11T01:16:22;100759.09;;;2.41;74.77
64200;BME280;50516;52.272;5.136;2023-03-11T01:18:48;100760.16;;;2.40;74.83
64200;BME280;50516;52.272;5.136;2023-03-11T01:21:13;100764.63;;;2.27;74.44
64200;BME280;50516;52.272;5.136;2023-03-11T01:23:39;100761.25;;;2.32;73.27
64200;BME280;50516;52.272;5.136;2023-03-11T01:26:05;100769.50;;;2.44;76.59
64200;BME280;50516;52.272;5.136;2023-03-11T01:28:31;100775.34;;;2.41;76.36
64200;BME280;50516;52.272;5.136;2023-03-11T01:31:03;100774.91;;;2.44;78.14
64200;BME280;50516;52.272;5.136;2023-03-11T01:33:28;100780.16;;;2.38;80.30
64200;BME280;50516;52.272;5.136;2023-03-11T01:35:54;100784.59;;;2.33;81.31
64200;BME280;50516;52.272;5.136;2023-03-11T01:38:19;100779.19;;;2.33;79.96
64200;BME280;50516;52.272;5.136;2023-03-11T01:40:47;100783.75;;;2.32;81.33
64200;BME280;50516;52.272;5.136;2023-03-11T01:46:24;100786.69;;;2.31;82.04
64200;BME280;50516;52.272;5.136;2023-03-11T01:48:52;100784.66;;;2.26;82.39
64200;BME280;50516;52.272;5.136;2023-03-11T01:51:26;100783.59;;;2.27;82.30
64200;BME280;50516;52.272;5.136;2023-03-11T01:53:55;100789.25;;;2.19;83.44
64200;BME280;50516;52.272;5.136;2023-03-11T01:56:22;100785.13;;;2.16;84.04
64200;BME280;50516;52.272;5.136;2023-03-11T01:58:49;100788.28;;;2.13;84.46
64200;BME280;50516;52.272;5.136;2023-03-11T02:01:16;100788.91;;;2.09;84.46
64200;BME280;50516;52.272;5.136;2023-03-11T02:03:43;100785.56;;;2.07;84.37
64200;BME280;50516;52.272;5.136;2023-03-11T02:06:13;100786.88;;;2.04;84.39
64200;BME280;50516;52.272;5.136;2023-03-11T02:08:40;100789.19;;;2.00;84.82
64200;BME280;50516;52.272;5.136;2023-03-11T02:11:09;100786.91;;;1.97;84.45
64200;BME280;50516;52.272;5.136;2023-03-11T02:13:35;100791.06;;;1.93;84.01
64200;BME280;50516;52.272;5.136;2023-03-11T02:16:03;100794.22;;;1.90;83.55
64200;BME280;50516;52.272;5.136;2023-03-11T02:18:29;100796.91;;;1.90;83.58
64200;BME280;50516;52.272;5.136;2023-03-11T02:23:40;100795.31;;;1.76;84.58
64200;BME280;50516;52.272;5.136;2023-03-11T02:26:29;100803.44;;;1.76;84.49
64200;BME280;50516;52.272;5.136;2023-03-11T02:28:57;100797.66;;;1.66;84.19
64200;BME280;50516;52.272;5.136;2023-03-11T02:31:24;100799.59;;;1.58;84.42
64200;BME280;50516;52.272;5.136;2023-03-11T02:33:52;100801.66;;;1.56;84.82
64200;BME280;50516;52.272;5.136;2023-03-11T02:36:38;100798.34;;;1.54;85.09
64200;BME280;50516;52.272;5.136;2023-03-11T02:39:04;100806.25;;;1.49;85.20
64200;BME280;50516;52.272;5.136;2023-03-11T02:41:32;100797.94;;;1.51;84.58
64200;BME280;50516;52.272;5.136;2023-03-11T02:43:59;100791.50;;;1.45;84.55
64200;BME280;50516;52.272;5.136;2023-03-11T02:46:25;100794.19;;;1.45;84.41
64200;BME280;50516;52.272;5.136;2023-03-11T02:48:51;100794.63;;;1.42;84.45
64200;BME280;50516;52.272;5.136;2023-03-11T02:51:18;100793.59;;;1.36;84.54
64200;BME280;50516;52.272;5.136;2023-03-11T02:53:50;100797.75;;;1.32;84.29
64200;BME280;50516;52.272;5.136;2023-03-11T02:56:15;100796.75;;;1.26;83.88
64200;BME280;50516;52.272;5.136;2023-03-11T02:58:41;100804.47;;;1.23;84.06
64200;BME280;50516;52.272;5.136;2023-03-11T03:01:06;100797.19;;;1.17;84.21
64200;BME280;50516;52.272;5.136;2023-03-11T03:03:31;100802.81;;;1.15;84.38
64200;BME280;50516;52.272;5.136;2023-03-11T03:05:57;100795.72;;;1.14;84.89
64200;BME280;50516;52.272;5.136;2023-03-11T03:08:22;100802.19;;;1.13;84.69
64200;BME280;50516;52.272;5.136;2023-03-11T03:10:47;100808.84;;;1.11;84.95
64200;BME280;50516;52.272;5.136;2023-03-11T03:13:13;100808.44;;;1.14;84.08
64200;BME280;50516;52.272;5.136;2023-03-11T03:15:38;100812.19;;;1.06;84.98
64200;BME280;50516;52.272;5.136;2023-03-11T03:18:03;100819.25;;;1.07;84.23
64200;BME280;50516;52.272;5.136;2023-03-11T03:20:29;100831.31;;;1.11;83.31
64200;BME280;50516;52.272;5.136;2023-03-11T03:22:54;100830.09;;;1.00;83.86
64200;BME280;50516;52.272;5.136;2023-03-11T03:25:19;100827.38;;;0.94;84.69
64200;BME280;50516;52.272;5.136;2023-03-11T03:27:45;100832.78;;;0.94;84.10
64200;BME280;50516;52.272;5.136;2023-03-11T03:30:10;100837.97;;;0.95;83.72
64200;BME280;50516;52.272;5.136;2023-03-11T03:32:36;100842.56;;;0.88;84.50
64200;BME280;50516;52.272;5.136;2023-03-11T03:35:02;100840.47;;;0.90;84.29
64200;BME280;50516;52.272;5.136;2023-03-11T03:37:31;100841.94;;;0.93;84.00
64200;BME280;50516;52.272;5.136;2023-03-11T03:39:57;100843.78;;;0.92;83.51
64200;BME280;50516;52.272;5.136;2023-03-11T03:42:22;100846.72;;;0.90;84.12
64200;BME280;50516;52.272;5.136;2023-03-11T03:44:50;100854.59;;;0.85;84.07
64200;BME280;50516;52.272;5.136;2023-03-11T03:47:15;100866.69;;;0.89;83.04
64200;BME280;50516;52.272;5.136;2023-03-11T03:49:41;100859.41;;;0.83;83.32
64200;BME280;50516;52.272;5.136;2023-03-11T03:52:06;100869.19;;;0.84;82.97
64200;BME280;50516;52.272;5.136;2023-03-11T03:54:32;100878.31;;;0.83;83.44
64200;BME280;50516;52.272;5.136;2023-03-11T03:56:58;100878.53;;;0.82;82.57
64200;BME280;50516;52.272;5.136;2023-03-11T03:59:23;100885.81;;;0.75;82.50
64200;BME280;50516;52.272;5.136;2023-03-11T04:01:48;100884.97;;;0.74;83.03
64200;BME280;50516;52.272;5.136;2023-03-11T04:04:14;100887.47;;;0.76;82.73
64200;BME280;50516;52.272;5.136;2023-03-11T04:06:39;100884.13;;;0.73;82.79
64200;BME280;50516;52.272;5.136;2023-03-11T04:09:04;100886.03;;;0.73;83.67
64200;BME280;50516;52.272;5.136;2023-03-11T04:11:30;100889.13;;;0.70;83.19
64200;BME280;50516;52.272;5.136;2023-03-11T04:13:56;100880.41;;;0.68;82.98
64200;BME280;50516;52.272;5.136;2023-03-11T04:16:23;100894.75;;;0.68;83.01
64200;BME280;50516;52.272;5.136;2023-03-11T04:18:48;100889.94;;;0.64;83.01
64200;BME280;50516;52.272;5.136;2023-03-11T04:21:14;100890.97;;;0.63;82.81
64200;BME280;50516;52.272;5.136;2023-03-11T04:23:39;100892.84;;;0.62;82.87
64200;BME280;50516;52.272;5.136;2023-03-11T04:26:05;100892.44;;;0.65;82.11
64200;BME280;50516;52.272;5.136;2023-03-11T04:28:30;100887.03;;;0.65;82.47
64200;BME280;50516;52.272;5.136;2023-03-11T04:30:56;100885.38;;;0.64;82.33
64200;BME280;50516;52.272;5.136;2023-03-11T04:33:21;100890.34;;;0.61;82.34
64200;BME280;50516;52.272;5.136;2023-03-11T04:35:46;100895.75;;;0.54;82.34
64200;BME280;50516;52.272;5.136;2023-03-11T04:38:12;100887.66;;;0.54;81.99
64200;BME280;50516;52.272;5.136;2023-03-11T04:40:37;100896.97;;;0.51;82.17
64200;BME280;50516;52.272;5.136;2023-03-11T04:43:03;100906.97;;;0.51;82.41
64200;BME280;50516;52.272;5.136;2023-03-11T04:45:28;100908.63;;;0.52;82.11
64200;BME280;50516;52.272;5.136;2023-03-11T04:47:54;100915.28;;;0.49;81.97
64200;BME280;50516;52.272;5.136;2023-03-11T04:50:19;100914.03;;;0.52;82.43
64200;BME280;50516;52.272;5.136;2023-03-11T04:52:45;100913.19;;;0.51;81.83
64200;BME280;50516;52.272;5.136;2023-03-11T04:55:11;100916.28;;;0.48;82.24
64200;BME280;50516;52.272;5.136;2023-03-11T04:57:38;100920.25;;;0.46;81.81
64200;BME280;50516;52.272;5.136;2023-03-11T05:00:04;100916.72;;;0.45;82.41
64200;BME280;50516;52.272;5.136;2023-03-11T05:02:37;100918.97;;;0.42;82.09
64200;BME280;50516;52.272;5.136;2023-03-11T05:05:03;100923.16;;;0.44;82.43
64200;BME280;50516;52.272;5.136;2023-03-11T05:07:29;100916.47;;;0.40;82.00
64200;BME280;50516;52.272;5.136;2023-03-11T05:09:54;100913.34;;;0.36;82.53
64200;BME280;50516;52.272;5.136;2023-03-11T05:12:20;100907.13;;;0.36;81.92
64200;BME280;50516;52.272;5.136;2023-03-11T05:14:45;100907.53;;;0.26;82.64
64200;BME280;50516;52.272;5.136;2023-03-11T05:17:10;100921.03;;;0.26;82.59
64200;BME280;50516;52.272;5.136;2023-03-11T05:19:37;100924.78;;;0.32;82.60
64200;BME280;50516;52.272;5.136;2023-03-11T05:22:04;100927.06;;;0.28;82.69
64200;BME280;50516;52.272;5.136;2023-03-11T05:24:30;100929.31;;;0.18;82.87
64200;BME280;50516;52.272;5.136;2023-03-11T05:26:55;100926.00;;;0.23;82.56
64200;BME280;50516;52.272;5.136;2023-03-11T05:29:22;100931.81;;;0.20;82.73
64200;BME280;50516;52.272;5.136;2023-03-11T05:31:47;100931.41;;;0.23;82.75
64200;BME280;50516;52.272;5.136;2023-03-11T05:34:14;100938.03;;;0.20;82.58
64200;BME280;50516;52.272;5.136;2023-03-11T05:36:39;100945.72;;;0.16;82.47
64200;BME280;50516;52.272;5.136;2023-03-11T05:39:05;100952.72;;;0.11;82.44
64200;BME280;50516;52.272;5.136;2023-03-11T05:41:30;100946.72;;;0.09;82.40
64200;BME280;50516;52.272;5.136;2023-03-11T05:43:56;100946.28;;;0.05;82.93
64200;BME280;50516;52.272;5.136;2023-03-11T05:46:21;100944.19;;;0.07;82.54
64200;BME280;50516;52.272;5.136;2023-03-11T05:48:46;100940.91;;;0.12;82.60
64200;BME280;50516;52.272;5.136;2023-03-11T05:51:12;100943.41;;;0.13;82.03
64200;BME280;50516;52.272;5.136;2023-03-11T05:53:41;100950.88;;;0.11;82.54
64200;BME280;50516;52.272;5.136;2023-03-11T05:56:06;100959.81;;;0.12;81.78
64200;BME280;50516;52.272;5.136;2023-03-11T05:58:32;100951.72;;;0.12;82.13
64200;BME280;50516;52.272;5.136;2023-03-11T06:00:57;100959.38;;;0.08;81.76
64200;BME280;50516;52.272;5.136;2023-03-11T06:03:24;100961.69;;;0.11;81.87
64200;BME280;50516;52.272;5.136;2023-03-11T06:05:50;100970.81;;;0.10;81.77
64200;BME280;50516;52.272;5.136;2023-03-11T06:08:16;100979.94;;;0.09;81.83
64200;BME280;50516;52.272;5.136;2023-03-11T06:10:42;100976.81;;;0.12;82.20
64200;BME280;50516;52.272;5.136;2023-03-11T06:13:08;100975.19;;;0.11;81.68
64200;BME280;50516;52.272;5.136;2023-03-11T06:15:35;100974.31;;;0.11;81.48
64200;BME280;50516;52.272;5.136;2023-03-11T06:18:01;100972.47;;;0.11;81.26
64200;BME280;50516;52.272;5.136;2023-03-11T06:20:27;100982.22;;;0.12;81.91
64200;BME280;50516;52.272;5.136;2023-03-11T06:22:53;100980.81;;;0.16;81.16
64200;BME280;50516;52.272;5.136;2023-03-11T06:25:18;100982.84;;;0.14;81.60
64200;BME280;50516;52.272;5.136;2023-03-11T06:27:48;100986.22;;;0.16;81.95
64200;BME280;50516;52.272;5.136;2023-03-11T06:30:15;100993.72;;;0.21;81.66
64200;BME280;50516;52.272;5.136;2023-03-11T06:32:42;100994.97;;;0.25;80.96
64200;BME280;50516;52.272;5.136;2023-03-11T06:35:08;100996.44;;;0.28;81.08
64200;BME280;50516;52.272;5.136;2023-03-11T06:37:37;101001.69;;;0.36;80.55
64200;BME280;50516;52.272;5.136;2023-03-11T06:40:03;101002.91;;;0.40;80.59
64200;BME280;50516;52.272;5.136;2023-03-11T06:42:29;100992.38;;;0.45;80.88
64200;BME280;50516;52.272;5.136;2023-03-11T06:44:55;101004.22;;;0.51;80.33
64200;BME280;50516;52.272;5.136;2023-03-11T06:47:20;101008.03;;;0.63;80.38
64200;BME280;50516;52.272;5.136;2023-03-11T06:49:46;101004.09;;;0.72;79.96
64200;BME280;50516;52.272;5.136;2023-03-11T06:52:11;100999.53;;;0.80;79.63
64200;BME280;50516;52.272;5.136;2023-03-11T06:54:36;101004.56;;;0.89;79.47
64200;BME280;50516;52.272;5.136;2023-03-11T06:57:02;101010.41;;;1.00;78.94
64200;BME280;50516;52.272;5.136;2023-03-11T06:59:27;101018.31;;;1.01;78.54
64200;BME280;50516;52.272;5.136;2023-03-11T07:01:53;101026.00;;;1.11;78.52
64200;BME280;50516;52.272;5.136;2023-03-11T07:04:19;101030.19;;;1.20;78.38
64200;BME280;50516;52.272;5.136;2023-03-11T07:06:45;101032.09;;;1.26;77.94
64200;BME280;50516;52.272;5.136;2023-03-11T07:09:11;101035.22;;;1.37;77.34
64200;BME280;50516;52.272;5.136;2023-03-11T07:11:36;101029.81;;;1.50;77.29
64200;BME280;50516;52.272;5.136;2023-03-11T07:14:02;101030.66;;;1.57;76.48
64200;BME280;50516;52.272;5.136;2023-03-11T07:16:28;101041.06;;;1.74;76.48
64200;BME280;50516;52.272;5.136;2023-03-11T07:18:56;101041.69;;;1.82;75.69
64200;BME280;50516;52.272;5.136;2023-03-11T07:21:23;101039.16;;;1.94;75.37
64200;BME280;50516;52.272;5.136;2023-03-11T07:23:57;101048.53;;;2.05;74.94
64200;BME280;50516;52.272;5.136;2023-03-11T07:26:24;101047.47;;;2.13;74.66
64200;BME280;50516;52.272;5.136;2023-03-11T07:28:50;101048.72;;;2.17;73.89
64200;BME280;50516;52.272;5.136;2023-03-11T07:31:21;101052.41;;;2.29;74.66
64200;BME280;50516;52.272;5.136;2023-03-11T07:33:48;101060.53;;;2.43;74.52
64200;BME280;50516;52.272;5.136;2023-03-11T07:36:16;101045.06;;;2.50;74.20
64200;BME280;50516;52.272;5.136;2023-03-11T07:38:42;101051.94;;;2.59;74.45
64200;BME280;50516;52.272;5.136;2023-03-11T07:41:09;101046.25;;;2.67;74.38
64200;BME280;50516;52.272;5.136;2023-03-11T07:43:36;101050.84;;;2.73;73.54
64200;BME280;50516;52.272;5.136;2023-03-11T07:46:20;101044.13;;;2.83;73.93
64200;BME280;50516;52.272;5.136;2023-03-11T07:48:47;101047.63;;;2.90;73.52
64200;BME280;50516;52.272;5.136;2023-03-11T07:51:19;101050.91;;;2.99;73.47
64200;BME280;50516;52.272;5.136;2023-03-11T07:53:45;101061.09;;;3.03;73.71
64200;BME280;50516;52.272;5.136;2023-03-11T07:56:13;101049.38;;;3.09;73.37
64200;BME280;50516;52.272;5.136;2023-03-11T07:58:39;101063.94;;;3.22;73.21
64200;BME280;50516;52.272;5.136;2023-03-11T08:01:13;101071.78;;;3.37;72.68
64200;BME280;50516;52.272;5.136;2023-03-11T08:03:41;101072.97;;;3.47;72.90
64200;BME280;50516;52.272;5.136;2023-03-11T08:06:18;101073.75;;;3.55;73.10
64200;BME280;50516;52.272;5.136;2023-03-11T08:08:44;101079.16;;;3.55;72.79
64200;BME280;50516;52.272;5.136;2023-03-11T08:11:10;101074.13;;;3.58;73.04
64200;BME280;50516;52.272;5.136;2023-03-11T08:13:38;101080.13;;;3.67;72.95
64200;BME280;50516;52.272;5.136;2023-03-11T08:16:08;101087.34;;;3.80;72.76
64200;BME280;50516;52.272;5.136;2023-03-11T08:18:34;101088.50;;;3.91;72.60
64200;BME280;50516;52.272;5.136;2023-03-11T08:21:04;101084.66;;;3.98;72.41
64200;BME280;50516;52.272;5.136;2023-03-11T08:23:29;101086.13;;;4.01;72.19
64200;BME280;50516;52.272;5.136;2023-03-11T08:25:55;101098.31;;;4.17;72.06
64200;BME280;50516;52.272;5.136;2023-03-11T08:28:20;101097.34;;;4.30;71.85
64200;BME280;50516;52.272;5.136;2023-03-11T08:30:45;101105.00;;;4.39;72.14
64200;BME280;50516;52.272;5.136;2023-03-11T08:33:10;101106.19;;;4.44;72.03
64200;BME280;50516;52.272;5.136;2023-03-11T08:35:36;101104.03;;;4.52;71.69
64200;BME280;50516;52.272;5.136;2023-03-11T08:38:01;101094.50;;;4.62;72.04
64200;BME280;50516;52.272;5.136;2023-03-11T08:40:27;101101.53;;;4.69;71.59
64200;BME280;50516;52.272;5.136;2023-03-11T08:42:54;101103.94;;;4.78;71.22
64200;BME280;50516;52.272;5.136;2023-03-11T08:45:20;101103.41;;;4.87;70.73
64200;BME280;50516;52.272;5.136;2023-03-11T08:47:45;101108.84;;;4.87;70.60
64200;BME280;50516;52.272;5.136;2023-03-11T08:50:13;101118.28;;;5.03;70.05
64200;BME280;50516;52.272;5.136;2023-03-11T08:52:39;101123.03;;;5.08;69.48
64200;BME280;50516;52.272;5.136;2023-03-11T08:55:05;101125.34;;;5.23;68.57
64200;BME280;50516;52.272;5.136;2023-03-11T08:57:32;101115.44;;;5.28;68.24
64200;BME280;50516;52.272;5.136;2023-03-11T08:59:58;101125.25;;;5.29;67.35
64200;BME280;50516;52.272;5.136;2023-03-11T09:02:24;101124.44;;;5.29;66.05
64200;BME280;50516;52.272;5.136;2023-03-11T09:04:49;101127.28;;;5.34;66.57
64200;BME280;50516;52.272;5.136;2023-03-11T09:07:15;101138.41;;;5.33;67.01
64200;BME280;50516;52.272;5.136;2023-03-11T09:09:40;101140.69;;;5.36;65.99
64200;BME280;50516;52.272;5.136;2023-03-11T09:12:06;101149.88;;;5.53;66.77
64200;BME280;50516;52.272;5.136;2023-03-11T09:14:32;101144.56;;;5.58;66.33
64200;BME280;50516;52.272;5.136;2023-03-11T09:16:57;101140.22;;;5.69;66.59
64200;BME280;50516;52.272;5.136;2023-03-11T09:19:23;101144.56;;;5.58;67.35
64200;BME280;50516;52.272;5.136;2023-03-11T09:21:49;101151.84;;;5.76;67.04
64200;BME280;50516;52.272;5.136;2023-03-11T09:24:14;101138.41;;;5.63;65.61
64200;BME280;50516;52.272;5.136;2023-03-11T09:26:40;101139.53;;;5.74;66.49
64200;BME280;50516;52.272;5.136;2023-03-11T09:29:05;101147.00;;;5.78;65.35
64200;BME280;50516;52.272;5.136;2023-03-11T09:31:30;101144.06;;;5.80;66.77
64200;BME280;50516;52.272;5.136;2023-03-11T09:33:56;101146.63;;;5.75;67.23
64200;BME280;50516;52.272;5.136;2023-03-11T09:36:21;101150.69;;;5.84;67.95
64200;BME280;50516;52.272;5.136;2023-03-11T09:38:47;101149.09;;;6.07;66.68
64200;BME280;50516;52.272;5.136;2023-03-11T09:41:21;101145.31;;;6.19;65.38
64200;BME280;50516;52.272;5.136;2023-03-11T09:44:15;101151.38;;;6.33;65.29
64200;BME280;50516;52.272;5.136;2023-03-11T09:52:13;101141.88;;;6.83;62.95
64200;BME280;50516;52.272;5.136;2023-03-11T09:54:42;101145.16;;;6.97;60.59
64200;BME280;50516;52.272;5.136;2023-03-11T09:57:13;101140.56;;;7.26;62.13
64200;BME280;50516;52.272;5.136;2023-03-11T09:59:40;101143.53;;;7.25;60.00
64200;BME280;50516;52.272;5.136;2023-03-11T10:02:13;101135.16;;;7.43;58.47
64200;BME280;50516;52.272;5.136;2023-03-11T10:04:50;101143.28;;;7.55;60.95
64200;BME280;50516;52.272;5.136;2023-03-11T10:07:20;101144.94;;;7.27;56.51
64200;BME280;50516;52.272;5.136;2023-03-11T10:09:52;101138.81;;;7.20;57.09
64200;BME280;50516;52.272;5.136;2023-03-11T10:25:29;101154.19;;;7.84;60.80
64200;BME280;50516;52.272;5.136;2023-03-11T10:28:02;101149.16;;;7.93;60.97
64200;BME280;50516;52.272;5.136;2023-03-11T10:30:40;101156.97;;;8.01;60.43
64200;BME280;50516;52.272;5.136;2023-03-11T10:33:19;101145.34;;;7.94;58.72
64200;BME280;50516;52.272;5.136;2023-03-11T10:35:51;101143.03;;;8.19;58.93
64200;BME280;50516;52.272;5.136;2023-03-11T10:38:36;101137.28;;;8.38;60.47
64200;BME280;50516;52.272;5.136;2023-03-11T10:41:13;101141.19;;;8.25;59.39
64200;BME280;50516;52.272;5.136;2023-03-11T10:43:44;101142.47;;;8.17;58.10
64200;BME280;50516;52.272;5.136;2023-03-11T10:46:27;101141.88;;;8.32;59.28
64200;BME280;50516;52.272;5.136;2023-03-11T10:48:53;101149.69;;;8.23;58.72
64200;BME280;50516;52.272;5.136;2023-03-11T10:51:38;101140.06;;;8.21;57.70
64200;BME280;50516;52.272;5.136;2023-03-11T10:54:04;101138.06;;;8.16;58.36
64200;BME280;50516;52.272;5.136;2023-03-11T10:56:38;101149.66;;;8.07;54.21
64200;BME280;50516;52.272;5.136;2023-03-11T10:59:21;101141.63;;;8.00;57.45
64200;BME280;50516;52.272;5.136;2023-03-11T11:01:58;101153.31;;;8.12;58.58
64200;BME280;50516;52.272;5.136;2023-03-11T11:06:55;101160.44;;;7.96;56.93
64200;BME280;50516;52.272;5.136;2023-03-11T11:09:21;101158.03;;;8.00;56.29
64200;BME280;50516;52.272;5.136;2023-03-11T11:12:13;101161.09;;;7.86;56.76
64200;BME280;50516;52.272;5.136;2023-03-11T11:14:48;101170.81;;;8.11;58.22
64200;BME280;50516;52.272;5.136;2023-03-11T11:17:27;101166.09;;;8.23;58.35
64200;BME280;50516;52.272;5.136;2023-03-11T11:19:54;101165.25;;;8.06;58.22
64200;BME280;50516;52.272;5.136;2023-03-11T11:22:23;101167.06;;;7.83;57.38
64200;BME280;50516;52.272;5.136;2023-03-11T11:24:54;101174.00;;;7.91;55.98
64200;BME280;50516;52.272;5.136;2023-03-11T11:27:27;101158.06;;;7.71;54.03
64200;BME280;50516;52.272;5.136;2023-03-11T11:32:34;101169.19;;;7.81;54.55
64200;BME280;50516;52.272;5.136;2023-03-11T11:35:01;101161.78;;;7.36;55.69
64200;BME280;50516;52.272;5.136;2023-03-11T11:37:30;101170.44;;;7.45;58.20
64200;BME280;50516;52.272;5.136;2023-03-11T11:42:36;101166.81;;;7.27;55.99
64200;BME280;50516;52.272;5.136;2023-03-11T11:45:18;101160.91;;;7.19;58.13
64200;BME280;50516;52.272;5.136;2023-03-11T11:47:49;101163.81;;;6.88;54.42
64200;BME280;50516;52.272;5.136;2023-03-11T11:50:37;101158.81;;;6.97;56.34
64200;BME280;50516;52.272;5.136;2023-03-11T11:53:22;101168.88;;;7.08;56.28
64200;BME280;50516;52.272;5.136;2023-03-11T11:55:50;101158.28;;;7.24;57.78
64200;BME280;50516;52.272;5.136;2023-03-11T11:58:18;101158.41;;;7.17;58.04
64200;BME280;50516;52.272;5.136;2023-03-11T12:03:47;101156.88;;;7.09;56.20
64200;BME280;50516;52.272;5.136;2023-03-11T12:06:41;101163.34;;;6.91;56.03
64200;BME280;50516;52.272;5.136;2023-03-11T12:09:20;101149.78;;;6.97;55.50
64200;BME280;50516;52.272;5.136;2023-03-11T12:12:11;101150.03;;;6.95;54.77
64200;BME280;50516;52.272;5.136;2023-03-11T12:17:16;101149.31;;;7.40;57.85
64200;BME280;50516;52.272;5.136;2023-03-11T12:20:03;101140.66;;;7.60;58.49
64200;BME280;50516;52.272;5.136;2023-03-11T12:25:43;101143.50;;;7.37;56.49
64200;BME280;50516;52.272;5.136;2023-03-11T12:30:58;101146.88;;;7.27;55.16
64200;BME280;50516;52.272;5.136;2023-03-11T12:33:40;101146.13;;;7.31;54.53
64200;BME280;50516;52.272;5.136;2023-03-11T12:36:20;101153.69;;;7.41;54.32
64200;BME280;50516;52.272;5.136;2023-03-11T12:38:48;101144.00;;;7.62;56.40
64200;BME280;50516;52.272;5.136;2023-03-11T12:46:08;101147.06;;;7.37;55.29
64200;BME280;50516;52.272;5.136;2023-03-11T12:48:45;101146.63;;;7.28;54.27
64200;BME280;50516;52.272;5.136;2023-03-11T12:51:59;101148.34;;;7.46;52.58
64200;BME280;50516;52.272;5.136;2023-03-11T12:54:33;101149.22;;;7.23;53.16
64200;BME280;50516;52.272;5.136;2023-03-11T13:00:18;101152.84;;;7.41;55.18
64200;BME280;50516;52.272;5.136;2023-03-11T13:08:07;101136.78;;;7.44;52.54
64200;BME280;50516;52.272;5.136;2023-03-11T13:10:41;101144.22;;;7.61;55.43
64200;BME280;50516;52.272;5.136;2023-03-11T13:15:54;101137.81;;;7.55;53.22
64200;BME280;50516;52.272;5.136;2023-03-11T13:18:27;101151.81;;;7.59;55.56
64200;BME280;50516;52.272;5.136;2023-03-11T13:20:57;101147.72;;;7.73;54.79
64200;BME280;50516;52.272;5.136;2023-03-11T13:23:37;101145.75;;;7.85;55.38
64200;BME280;50516;52.272;5.136;2023-03-11T13:26:34;101143.13;;;8.08;55.81
64200;BME280;50516;52.272;5.136;2023-03-11T13:29:09;101145.50;;;7.87;56.17
64200;BME280;50516;52.272;5.136;2023-03-11T13:40:05;101143.03;;;8.19;56.19
64200;BME280;50516;52.272;5.136;2023-03-11T13:42:46;101140.69;;;7.94;53.73
64200;BME280;50516;52.272;5.136;2023-03-11T13:45:21;101138.56;;;7.96;55.79
64200;BME280;50516;52.272;5.136;2023-03-11T13:47:49;101140.84;;;7.88;56.45
64200;BME280;50516;52.272;5.136;2023-03-11T13:50:39;101153.63;;;7.99;56.39
64200;BME280;50516;52.272;5.136;2023-03-11T13:53:24;101150.72;;;8.05;54.38
64200;BME280;50516;52.272;5.136;2023-03-11T13:55:52;101140.06;;;8.21;54.72
64200;BME280;50516;52.272;5.136;2023-03-11T13:58:23;101147.66;;;8.36;54.62
64200;BME280;50516;52.272;5.136;2023-03-11T14:00:51;101144.16;;;8.74;54.14
64200;BME280;50516;52.272;5.136;2023-03-11T14:03:17;101145.34;;;8.62;52.89
64200;BME280;50516;52.272;5.136;2023-03-11T14:05:47;101154.56;;;8.38;52.94
64200;BME280;50516;52.272;5.136;2023-03-11T14:08:34;101160.94;;;8.10;53.08
64200;BME280;50516;52.272;5.136;2023-03-11T14:11:01;101157.63;;;8.08;53.29
64200;BME280;50516;52.272;5.136;2023-03-11T14:13:29;101148.75;;;8.01;53.14
64200;BME280;50516;52.272;5.136;2023-03-11T14:18:45;101155.22;;;7.95;52.70